sensor_id;sensor_type;location;lat;lon;timestamp;pressure;altitude;pressure_sealevel;temperature;humidity
30714;BME280;17465;47.934;33.430;2023-02-26T00:00:40;57307.13;;;-140.43;100.00
30714;BME280;17465;47.934;33.430;2023-02-26T00:03:17;57319.84;;;-140.43;100.00
30714;BME280;17465;47.934;33.430;2023-02-26T00:05:48;57331.49;;;-140.43;100.00
30714;BME280;17465;47.934;33.430;2023-02-26T00:08:20;57307.13;;;-140.43;100.00
30714;BME280;17465;47.934;33.430;2023-02-26T00:10:50;57343.14;;;-140.43;100.00
30714;BME280;17465;47.934;33.430;2023-02-26T00:13:30;57351.61;;;-140.43;100.00
30714;BME280;17465;47.934;33.430;2023-02-26T00:16:01;57351.61;;;-140.43;100.00
30714;BME280;17465;47.934;33.430;2023-02-26T00:18:32;57368.55;;;-140.43;100.00
30714;BME280;17465;47.934;33.430;2023-02-26T00:21:03;57326.20;;;-140.43;100.00
30714;BME280;17465;47.934;33.430;2023-02-26T00:23:35;57349.49;;;-140.43;100.00
30714;BME280;17465;47.934;33.430;2023-02-26T00:26:06;57362.20;;;-140.43;100.00
30714;BME280;17465;47.934;33.430;2023-02-26T00:28:38;57327.25;;;-140.43;100.00
30714;BME280;17465;47.934;33.430;2023-02-26T00:31:09;57325.14;;;-140.43;100.00
30714;BME280;17465;47.934;33.430;2023-02-26T00:33:40;57325.14;;;-140.43;100.00
30714;BME280;17465;47.934;33.430;2023-02-26T00:41:59;57351.61;;;-140.43;100.00
30714;BME280;17465;47.934;33.430;2023-02-26T00:44:30;57328.31;;;-140.43;100.00
30714;BME280;17465;47.934;33.430;2023-02-26T00:47:07;57328.31;;;-140.43;100.00
30714;BME280;17465;47.934;33.430;2023-02-26T00:55:04;57309.25;;;-140.43;100.00
30714;BME280;17465;47.934;33.430;2023-02-26T00:57:34;57339.96;;;-140.43;100.00
30714;BME280;17465;47.934;33.430;2023-02-26T01:00:05;57324.07;;;-140.43;100.00
30714;BME280;17465;47.934;33.430;2023-02-26T01:02:37;57329.37;;;-140.43;100.00
30714;BME280;17465;47.934;33.430;2023-02-26T01:05:15;57318.78;;;-140.43;100.00
30714;BME280;17465;47.934;33.430;2023-02-26T01:10:44;57342.08;;;-140.43;100.00
30714;BME280;17465;47.934;33.430;2023-02-26T01:13:15;57324.07;;;-140.43;100.00
30714;BME280;17465;47.934;33.430;2023-02-26T01:15:49;57348.43;;;-140.43;100.00
30714;BME280;17465;47.934;33.430;2023-02-26T01:18:35;57348.43;;;-140.43;100.00
30714;BME280;17465;47.934;33.430;2023-02-26T01:20:57;57335.73;;;-140.43;100.00
30714;BME280;17465;47.934;33.430;2023-02-26T01:23:34;57347.38;;;-140.43;100.00
30714;BME280;17465;47.934;33.430;2023-02-26T01:26:07;57303.95;;;-140.43;100.00
30714;BME280;17465;47.934;33.430;2023-02-26T01:28:37;57341.02;;;-140.43;100.00
30714;BME280;17465;47.934;33.430;2023-02-26T01:31:14;57302.89;;;-140.43;100.00
30714;BME280;17465;47.934;33.430;2023-02-26T01:33:48;57319.84;;;-140.43;100.00
30714;BME280;17465;47.934;33.430;2023-02-26T01:36:23;57306.07;;;-140.43;100.00
30714;BME280;17465;47.934;33.430;2023-02-26T01:39:15;57334.67;;;-140.43;100.00
30714;BME280;17465;47.934;33.430;2023-02-26T01:42:29;57335.73;;;-140.43;100.00
30714;BME280;17465;47.934;33.430;2023-02-26T01:44:54;57307.13;;;-140.43;100.00
30714;BME280;17465;47.934;33.430;2023-02-26T01:47:57;57331.49;;;-140.43;100.00
30714;BME280;17465;47.934;33.430;2023-02-26T01:50:28;57318.78;;;-140.43;100.00
30714;BME280;17465;47.934;33.430;2023-02-26T01:55:32;57332.55;;;-140.43;100.00
30714;BME280;17465;47.934;33.430;2023-02-26T01:58:03;57366.44;;;-140.43;100.00
30714;BME280;17465;47.934;33.430;2023-02-26T02:00:33;57366.44;;;-140.43;100.00
30714;BME280;17465;47.934;33.430;2023-02-26T02:03:04;57325.14;;;-140.43;100.00
30714;BME280;17465;47.934;33.430;2023-02-26T02:05:47;57339.96;;;-140.43;100.00
30714;BME280;17465;47.934;33.430;2023-02-26T02:08:09;57336.79;;;-140.43;100.00
30714;BME280;17465;47.934;33.430;2023-02-26T02:10:43;57324.07;;;-140.43;100.00
30714;BME280;17465;47.934;33.430;2023-02-26T02:13:19;57341.02;;;-140.43;100.00
30714;BME280;17465;47.934;33.430;2023-02-26T02:16:17;57341.02;;;-140.43;100.00
30714;BME280;17465;47.934;33.430;2023-02-26T02:18:59;57365.38;;;-140.43;100.00
30714;BME280;17465;47.934;33.430;2023-02-26T02:21:40;57325.14;;;-140.43;100.00
30714;BME280;17465;47.934;33.430;2023-02-26T02:27:46;57349.49;;;-140.43;100.00
30714;BME280;17465;47.934;33.430;2023-02-26T02:32:57;57329.37;;;-140.43;100.00
30714;BME280;17465;47.934;33.430;2023-02-26T02:35:37;57308.19;;;-140.43;100.00
30714;BME280;17465;47.934;33.430;2023-02-26T02:38:10;57293.36;;;-140.43;100.00
30714;BME280;17465;47.934;33.430;2023-02-26T02:40:44;57331.49;;;-140.43;100.00
30714;BME280;17465;47.934;33.430;2023-02-26T02:43:19;57352.67;;;-140.43;100.00
30714;BME280;17465;47.934;33.430;2023-02-26T02:46:05;57342.08;;;-140.43;100.00
30714;BME280;17465;47.934;33.430;2023-02-26T02:51:20;57332.55;;;-140.43;100.00
30714;BME280;17465;47.934;33.430;2023-02-26T02:59:47;57362.20;;;-140.43;100.00
30714;BME280;17465;47.934;33.430;2023-02-26T03:02:31;57349.49;;;-140.43;100.00
30714;BME280;17465;47.934;33.430;2023-02-26T03:05:01;57295.48;;;-140.43;100.00
30714;BME280;17465;47.934;33.430;2023-02-26T03:07:34;57333.61;;;-140.43;100.00
30714;BME280;17465;47.934;33.430;2023-02-26T03:10:05;57316.66;;;-140.43;100.00
30714;BME280;17465;47.934;33.430;2023-02-26T03:12:36;57348.43;;;-140.43;100.00
30714;BME280;17465;47.934;33.430;2023-02-26T03:15:08;57348.43;;;-140.43;100.00
30714;BME280;17465;47.934;33.430;2023-02-26T03:17:53;57342.08;;;-140.43;100.00
30714;BME280;17465;47.934;33.430;2023-02-26T03:20:24;57325.14;;;-140.43;100.00
30714;BME280;17465;47.934;33.430;2023-02-26T03:25:44;57359.03;;;-140.43;100.00
30714;BME280;17465;47.934;33.430;2023-02-26T03:28:23;57349.49;;;-140.43;100.00
30714;BME280;17465;47.934;33.430;2023-02-26T03:36:50;57331.49;;;-140.43;100.00
30714;BME280;17465;47.934;33.430;2023-02-26T03:39:19;57361.14;;;-140.43;100.00
30714;BME280;17465;47.934;33.430;2023-02-26T03:41:58;57361.14;;;-140.43;100.00
30714;BME280;17465;47.934;33.430;2023-02-26T03:44:26;57368.55;;;-140.43;100.00
30714;BME280;17465;47.934;33.430;2023-02-26T03:46:59;57347.38;;;-140.43;100.00
30714;BME280;17465;47.934;33.430;2023-02-26T03:49:34;57300.78;;;-140.43;100.00
30714;BME280;17465;47.934;33.430;2023-02-26T03:52:05;57333.61;;;-140.43;100.00
30714;BME280;17465;47.934;33.430;2023-02-26T03:57:30;57345.26;;;-140.43;100.00
30714;BME280;17465;47.934;33.430;2023-02-26T04:00:01;57323.02;;;-140.43;100.00
30714;BME280;17465;47.934;33.430;2023-02-26T04:02:45;57313.48;;;-140.43;100.00
30714;BME280;17465;47.934;33.430;2023-02-26T04:05:18;57349.49;;;-140.43;100.00
30714;BME280;17465;47.934;33.430;2023-02-26T04:07:47;57371.73;;;-140.43;100.00
30714;BME280;17465;47.934;33.430;2023-02-26T04:10:26;57363.26;;;-140.43;100.00
30714;BME280;17465;47.934;33.430;2023-02-26T04:13:00;57365.38;;;-140.43;100.00
30714;BME280;17465;47.934;33.430;2023-02-26T04:15:31;57337.84;;;-140.43;100.00
30714;BME280;17465;47.934;33.430;2023-02-26T04:18:02;57330.43;;;-140.43;100.00
30714;BME280;17465;47.934;33.430;2023-02-26T04:20:34;57351.61;;;-140.43;100.00
30714;BME280;17465;47.934;33.430;2023-02-26T04:23:05;57356.91;;;-140.43;100.00
30714;BME280;17465;47.934;33.430;2023-02-26T04:25:37;57356.91;;;-140.43;100.00
30714;BME280;17465;47.934;33.430;2023-02-26T04:28:09;57339.96;;;-140.43;100.00
30714;BME280;17465;47.934;33.430;2023-02-26T04:30:40;57344.20;;;-140.43;100.00
30714;BME280;17465;47.934;33.430;2023-02-26T04:33:11;57337.84;;;-140.43;100.00
30714;BME280;17465;47.934;33.430;2023-02-26T04:35:42;57337.84;;;-140.43;100.00
30714;BME280;17465;47.934;33.430;2023-02-26T04:38:12;57348.43;;;-140.43;100.00
30714;BME280;17465;47.934;33.430;2023-02-26T04:40:43;57326.20;;;-140.43;100.00
30714;BME280;17465;47.934;33.430;2023-02-26T04:43:13;57344.20;;;-140.43;100.00
30714;BME280;17465;47.934;33.430;2023-02-26T04:45:47;57325.14;;;-140.43;100.00
30714;BME280;17465;47.934;33.430;2023-02-26T04:48:18;57341.02;;;-140.43;100.00
30714;BME280;17465;47.934;33.430;2023-02-26T04:50:49;57341.02;;;-140.43;100.00
30714;BME280;17465;47.934;33.430;2023-02-26T04:53:20;57324.07;;;-140.43;100.00
30714;BME280;17465;47.934;33.430;2023-02-26T04:55:50;57339.96;;;-140.43;100.00
30714;BME280;17465;47.934;33.430;2023-02-26T04:58:23;57326.20;;;-140.43;100.00
30714;BME280;17465;47.934;33.430;2023-02-26T05:00:53;57342.08;;;-140.43;100.00
30714;BME280;17465;47.934;33.430;2023-02-26T05:03:23;57342.08;;;-140.43;100.00
30714;BME280;17465;47.934;33.430;2023-02-26T05:05:54;57344.20;;;-140.43;100.00
30714;BME280;17465;47.934;33.430;2023-02-26T05:08:28;57357.96;;;-140.43;100.00
30714;BME280;17465;47.934;33.430;2023-02-26T05:10:58;57316.66;;;-140.43;100.00
30714;BME280;17465;47.934;33.430;2023-02-26T05:13:30;57359.03;;;-140.43;100.00
30714;BME280;17465;47.934;33.430;2023-02-26T05:16:01;57359.03;;;-140.43;100.00
30714;BME280;17465;47.934;33.430;2023-02-26T05:18:32;57325.14;;;-140.43;100.00
30714;BME280;17465;47.934;33.430;2023-02-26T05:21:03;57338.90;;;-140.43;100.00
30714;BME280;17465;47.934;33.430;2023-02-26T05:23:35;57347.38;;;-140.43;100.00
30714;BME280;17465;47.934;33.430;2023-02-26T05:26:05;57347.38;;;-140.43;100.00
30714;BME280;17465;47.934;33.430;2023-02-26T05:28:36;57355.85;;;-140.43;100.00
30714;BME280;17465;47.934;33.430;2023-02-26T05:31:06;57349.49;;;-140.43;100.00
30714;BME280;17465;47.934;33.430;2023-02-26T05:33:37;57334.67;;;-140.43;100.00
30714;BME280;17465;47.934;33.430;2023-02-26T05:36:09;57320.90;;;-140.43;100.00
30714;BME280;17465;47.934;33.430;2023-02-26T05:38:39;57312.43;;;-140.43;100.00
30714;BME280;17465;47.934;33.430;2023-02-26T05:41:10;57312.43;;;-140.43;100.00
30714;BME280;17465;47.934;33.430;2023-02-26T05:43:41;57332.55;;;-140.43;100.00
30714;BME280;17465;47.934;33.430;2023-02-26T05:46:11;57343.14;;;-140.43;100.00
30714;BME280;17465;47.934;33.430;2023-02-26T05:48:42;57334.67;;;-140.43;100.00
30714;BME280;17465;47.934;33.430;2023-02-26T05:51:15;57346.32;;;-140.43;100.00
30714;BME280;17465;47.934;33.430;2023-02-26T05:53:45;57335.73;;;-140.43;100.00
30714;BME280;17465;47.934;33.430;2023-02-26T05:56:16;57366.44;;;-140.43;100.00
30714;BME280;17465;47.934;33.430;2023-02-26T05:58:47;57348.43;;;-140.43;100.00
30714;BME280;17465;47.934;33.430;2023-02-26T06:01:18;57348.43;;;-140.43;100.00
30714;BME280;17465;47.934;33.430;2023-02-26T06:03:48;57366.44;;;-140.43;100.00
30714;BME280;17465;47.934;33.430;2023-02-26T06:06:21;57344.20;;;-140.43;100.00
30714;BME280;17465;47.934;33.430;2023-02-26T06:08:53;57344.20;;;-140.43;100.00
30714;BME280;17465;47.934;33.430;2023-02-26T06:11:30;57330.43;;;-140.43;100.00
30714;BME280;17465;47.934;33.430;2023-02-26T06:14:03;57343.14;;;-140.43;100.00
30714;BME280;17465;47.934;33.430;2023-02-26T06:16:35;57335.73;;;-140.43;100.00
30714;BME280;17465;47.934;33.430;2023-02-26T06:19:08;57328.31;;;-140.43;100.00
30714;BME280;17465;47.934;33.430;2023-02-26T06:21:42;57346.32;;;-140.43;100.00
30714;BME280;17465;47.934;33.430;2023-02-26T06:24:13;57321.96;;;-140.43;100.00
30714;BME280;17465;47.934;33.430;2023-02-26T06:29:34;57330.43;;;-140.43;100.00
30714;BME280;17465;47.934;33.430;2023-02-26T06:32:08;57339.96;;;-140.43;100.00
30714;BME280;17465;47.934;33.430;2023-02-26T06:34:45;57339.96;;;-140.43;100.00
30714;BME280;17465;47.934;33.430;2023-02-26T06:37:20;57345.26;;;-140.43;100.00
30714;BME280;17465;47.934;33.430;2023-02-26T06:39:55;57344.20;;;-140.43;100.00
30714;BME280;17465;47.934;33.430;2023-02-26T06:42:28;57343.14;;;-140.43;100.00
30714;BME280;17465;47.934;33.430;2023-02-26T06:44:59;57343.14;;;-140.43;100.00
30714;BME280;17465;47.934;33.430;2023-02-26T06:47:32;57331.49;;;-140.43;100.00
30714;BME280;17465;47.934;33.430;2023-02-26T06:50:03;57343.14;;;-140.43;100.00
30714;BME280;17465;47.934;33.430;2023-02-26T06:52:33;57345.26;;;-140.43;100.00
30714;BME280;17465;47.934;33.430;2023-02-26T06:55:06;57327.25;;;-140.43;100.00
30714;BME280;17465;47.934;33.430;2023-02-26T06:57:37;57335.73;;;-140.43;100.00
30714;BME280;17465;47.934;33.430;2023-02-26T07:00:11;57318.78;;;-140.43;98.61
30714;BME280;17465;47.934;33.430;2023-02-26T07:02:49;57354.79;;;-140.43;99.70
30714;BME280;17465;47.934;33.430;2023-02-26T07:05:16;57307.13;;;-140.43;100.00
30714;BME280;17465;47.934;33.430;2023-02-26T07:08:04;57335.73;;;-140.43;100.00
30714;BME280;17465;47.934;33.430;2023-02-26T07:13:23;57331.49;;;-140.43;100.00
30714;BME280;17465;47.934;33.430;2023-02-26T07:15:53;57331.49;;;-140.43;100.00
30714;BME280;17465;47.934;33.430;2023-02-26T07:18:24;57326.20;;;-140.43;100.00
30714;BME280;17465;47.934;33.430;2023-02-26T07:20:54;57347.38;;;-140.43;100.00
30714;BME280;17465;47.934;33.430;2023-02-26T07:23:25;57347.38;;;-140.43;100.00
30714;BME280;17465;47.934;33.430;2023-02-26T07:25:55;57306.07;;;-140.43;100.00
30714;BME280;17465;47.934;33.430;2023-02-26T07:28:27;57327.25;;;-140.43;100.00
30714;BME280;17465;47.934;33.430;2023-02-26T07:30:57;57316.66;;;-140.43;99.76
30714;BME280;17465;47.934;33.430;2023-02-26T07:33:28;57351.61;;;-140.43;99.46
30714;BME280;17465;47.934;33.430;2023-02-26T07:35:59;57323.02;;;-140.43;100.00
30714;BME280;17465;47.934;33.430;2023-02-26T07:38:33;57350.55;;;-140.43;100.00
30714;BME280;17465;47.934;33.430;2023-02-26T07:41:05;57332.55;;;-140.43;99.41
30714;BME280;17465;47.934;33.430;2023-02-26T07:43:46;57329.37;;;-140.43;96.92
30714;BME280;17465;47.934;33.430;2023-02-26T07:46:15;57311.37;;;-140.43;95.63
30714;BME280;17465;47.934;33.430;2023-02-26T07:48:46;57347.38;;;-140.43;96.30
30714;BME280;17465;47.934;33.430;2023-02-26T07:51:16;57301.84;;;-140.43;97.04
30714;BME280;17465;47.934;33.430;2023-02-26T07:53:47;57306.07;;;-140.43;96.28
30714;BME280;17465;47.934;33.430;2023-02-26T07:56:21;57350.55;;;-140.43;96.22
30714;BME280;17465;47.934;33.430;2023-02-26T07:58:55;57350.55;;;-140.43;96.22
30714;BME280;17465;47.934;33.430;2023-02-26T08:01:26;57357.96;;;-140.43;95.70
30714;BME280;17465;47.934;33.430;2023-02-26T08:03:56;57334.67;;;-140.43;95.00
30714;BME280;17465;47.934;33.430;2023-02-26T08:06:28;57336.79;;;-140.43;94.22
30714;BME280;17465;47.934;33.430;2023-02-26T08:08:59;57289.13;;;-140.43;95.06
30714;BME280;17465;47.934;33.430;2023-02-26T08:11:31;57342.08;;;-140.43;95.86
30714;BME280;17465;47.934;33.430;2023-02-26T08:14:02;57342.08;;;-140.43;95.86
30714;BME280;17465;47.934;33.430;2023-02-26T08:16:33;57303.95;;;-140.43;96.32
30714;BME280;17465;47.934;33.430;2023-02-26T08:19:04;57327.25;;;-140.43;95.11
30714;BME280;17465;47.934;33.430;2023-02-26T08:21:34;57350.55;;;-140.43;92.49
30714;BME280;17465;47.934;33.430;2023-02-26T08:24:05;57336.79;;;-140.43;90.84
30714;BME280;17465;47.934;33.430;2023-02-26T08:26:36;57316.66;;;-140.43;89.94
30714;BME280;17465;47.934;33.430;2023-02-26T08:29:07;57300.78;;;-140.43;88.34
30714;BME280;17465;47.934;33.430;2023-02-26T08:31:42;57348.43;;;-140.43;89.69
30714;BME280;17465;47.934;33.430;2023-02-26T08:34:17;57330.43;;;-140.43;90.87
30714;BME280;17465;47.934;33.430;2023-02-26T08:36:48;57337.84;;;-140.43;93.15
30714;BME280;17465;47.934;33.430;2023-02-26T08:39:18;57337.84;;;-140.43;93.15
30714;BME280;17465;47.934;33.430;2023-02-26T08:41:49;57310.31;;;-140.43;94.74
30714;BME280;17465;47.934;33.430;2023-02-26T08:44:19;57318.78;;;-140.43;94.56
30714;BME280;17465;47.934;33.430;2023-02-26T08:46:50;57333.61;;;-140.43;94.64
30714;BME280;17465;47.934;33.430;2023-02-26T08:49:21;57336.79;;;-140.43;94.32
30714;BME280;17465;47.934;33.430;2023-02-26T08:51:52;57336.79;;;-140.43;94.32
30714;BME280;17465;47.934;33.430;2023-02-26T08:54:22;57324.07;;;-140.43;93.32
30714;BME280;17465;47.934;33.430;2023-02-26T08:56:53;57301.84;;;-140.43;93.83
30714;BME280;17465;47.934;33.430;2023-02-26T08:59:24;57316.66;;;-140.43;94.01
30714;BME280;17465;47.934;33.430;2023-02-26T09:01:54;57337.84;;;-140.43;93.52
30714;BME280;17465;47.934;33.430;2023-02-26T09:04:25;57315.61;;;-140.43;89.30
30714;BME280;17465;47.934;33.430;2023-02-26T09:07:00;57335.73;;;-140.43;89.10
30714;BME280;17465;47.934;33.430;2023-02-26T09:09:31;57313.48;;;-140.43;90.68
30714;BME280;17465;47.934;33.430;2023-02-26T09:12:02;57341.02;;;-140.43;89.57
30714;BME280;17465;47.934;33.430;2023-02-26T09:14:33;57352.67;;;-140.43;88.13
30714;BME280;17465;47.934;33.430;2023-02-26T09:17:06;57336.79;;;-140.43;91.15
30714;BME280;17465;47.934;33.430;2023-02-26T09:19:37;57336.79;;;-140.43;91.15
30714;BME280;17465;47.934;33.430;2023-02-26T09:22:08;57315.61;;;-140.43;94.11
30714;BME280;17465;47.934;33.430;2023-02-26T09:24:46;57315.61;;;-140.43;93.73
30714;BME280;17465;47.934;33.430;2023-02-26T09:27:16;57308.19;;;-140.43;93.54
30714;BME280;17465;47.934;33.430;2023-02-26T09:29:47;57338.90;;;-140.43;93.00
30714;BME280;17465;47.934;33.430;2023-02-26T09:32:17;57354.79;;;-140.43;93.18
30714;BME280;17465;47.934;33.430;2023-02-26T09:34:48;57337.84;;;-140.43;90.93
30714;BME280;17465;47.934;33.430;2023-02-26T09:37:19;57306.07;;;-140.43;88.95
30714;BME280;17465;47.934;33.430;2023-02-26T09:39:50;57327.25;;;-140.43;89.75
30714;BME280;17465;47.934;33.430;2023-02-26T09:45:30;57310.31;;;-140.43;91.51
30714;BME280;17465;47.934;33.430;2023-02-26T09:48:52;57310.31;;;-140.43;91.51
30714;BME280;17465;47.934;33.430;2023-02-26T09:51:24;57328.31;;;-140.43;91.68
30714;BME280;17465;47.934;33.430;2023-02-26T09:54:00;57319.84;;;-140.43;92.07
30714;BME280;17465;47.934;33.430;2023-02-26T09:56:33;57319.84;;;-140.43;92.07
30714;BME280;17465;47.934;33.430;2023-02-26T09:59:06;57332.55;;;-140.43;90.83
30714;BME280;17465;47.934;33.430;2023-02-26T10:01:45;57313.48;;;-140.43;89.70
30714;BME280;17465;47.934;33.430;2023-02-26T10:07:25;57329.37;;;-140.43;89.37
30714;BME280;17465;47.934;33.430;2023-02-26T10:13:03;57335.73;;;-140.43;88.24
30714;BME280;17465;47.934;33.430;2023-02-26T10:15:41;57294.42;;;-140.43;87.46
30714;BME280;17465;47.934;33.430;2023-02-26T10:18:24;57343.14;;;-140.43;87.02
30714;BME280;17465;47.934;33.430;2023-02-26T10:23:54;57335.73;;;-140.43;90.19
30714;BME280;17465;47.934;33.430;2023-02-26T10:26:30;57327.25;;;-140.43;91.80
30714;BME280;17465;47.934;33.430;2023-02-26T10:29:18;57327.25;;;-140.43;91.80
30714;BME280;17465;47.934;33.430;2023-02-26T10:34:59;57321.96;;;-140.43;88.21
30714;BME280;17465;47.934;33.430;2023-02-26T10:37:53;57331.49;;;-140.43;86.57
30714;BME280;17465;47.934;33.430;2023-02-26T10:40:49;57339.96;;;-140.43;88.61
30714;BME280;17465;47.934;33.430;2023-02-26T10:46:24;57335.73;;;-140.43;91.48
30714;BME280;17465;47.934;33.430;2023-02-26T10:51:56;57346.32;;;-140.43;90.88
30714;BME280;17465;47.934;33.430;2023-02-26T10:54:35;57337.84;;;-140.43;93.48
30714;BME280;17465;47.934;33.430;2023-02-26T10:57:13;57337.84;;;-140.43;93.48
30714;BME280;17465;47.934;33.430;2023-02-26T10:59:40;57328.31;;;-140.43;92.11
30714;BME280;17465;47.934;33.430;2023-02-26T11:02:37;57345.26;;;-140.43;94.51
30714;BME280;17465;47.934;33.430;2023-02-26T11:04:53;57345.26;;;-140.43;94.51
30714;BME280;17465;47.934;33.430;2023-02-26T11:07:30;57296.54;;;-140.43;93.09
30714;BME280;17465;47.934;33.430;2023-02-26T11:10:02;57318.78;;;-140.43;92.92
30714;BME280;17465;47.934;33.430;2023-02-26T11:12:33;57329.37;;;-140.43;93.00
30714;BME280;17465;47.934;33.430;2023-02-26T11:15:10;57346.32;;;-140.43;93.10
30714;BME280;17465;47.934;33.430;2023-02-26T11:17:45;57357.96;;;-140.43;93.05
30714;BME280;17465;47.934;33.430;2023-02-26T11:23:12;57331.49;;;-140.43;94.25
30714;BME280;17465;47.934;33.430;2023-02-26T11:26:00;57330.43;;;-140.43;93.70
30714;BME280;17465;47.934;33.430;2023-02-26T11:28:45;57328.31;;;-140.43;94.62
30714;BME280;17465;47.934;33.430;2023-02-26T11:31:18;57335.73;;;-140.43;94.42
30714;BME280;17465;47.934;33.430;2023-02-26T11:33:51;57335.73;;;-140.43;94.42
30714;BME280;17465;47.934;33.430;2023-02-26T11:36:30;57335.73;;;-140.43;94.92
30714;BME280;17465;47.934;33.430;2023-02-26T11:39:06;57332.55;;;-140.43;95.45
30714;BME280;17465;47.934;33.430;2023-02-26T11:41:40;57312.43;;;-140.43;96.04
30714;BME280;17465;47.934;33.430;2023-02-26T11:44:17;57310.31;;;-140.43;95.63
30714;BME280;17465;47.934;33.430;2023-02-26T11:46:54;57337.84;;;-140.43;96.72
30714;BME280;17465;47.934;33.430;2023-02-26T11:49:26;57336.79;;;-140.43;97.24
30714;BME280;17465;47.934;33.430;2023-02-26T11:54:49;57324.07;;;-140.43;98.15
30714;BME280;17465;47.934;33.430;2023-02-26T11:57:25;57311.37;;;-140.43;99.64
30714;BME280;17465;47.934;33.430;2023-02-26T12:00:02;57343.14;;;-140.43;99.92
30714;BME280;17465;47.934;33.430;2023-02-26T12:02:38;57341.02;;;-140.43;100.00
30714;BME280;17465;47.934;33.430;2023-02-26T12:05:11;57316.66;;;-140.43;100.00
30714;BME280;17465;47.934;33.430;2023-02-26T12:07:49;57316.66;;;-140.43;100.00
30714;BME280;17465;47.934;33.430;2023-02-26T12:10:30;57352.67;;;-140.43;100.00
30714;BME280;17465;47.934;33.430;2023-02-26T12:22:02;57352.67;;;-140.43;98.85
30714;BME280;17465;47.934;33.430;2023-02-26T12:24:54;57335.73;;;-140.43;98.83
30714;BME280;17465;47.934;33.430;2023-02-26T12:33:29;57339.96;;;-140.43;99.18
30714;BME280;17465;47.934;33.430;2023-02-26T12:38:41;57318.78;;;-140.43;99.86
30714;BME280;17465;47.934;33.430;2023-02-26T12:41:22;57318.78;;;-140.43;99.86
30714;BME280;17465;47.934;33.430;2023-02-26T12:43:55;57301.84;;;-140.43;100.00
30714;BME280;17465;47.934;33.430;2023-02-26T12:46:59;57338.90;;;-140.43;100.00
30714;BME280;17465;47.934;33.430;2023-02-26T12:49:41;57348.43;;;-140.43;100.00
30714;BME280;17465;47.934;33.430;2023-02-26T13:01:22;57329.37;;;-140.43;100.00
30714;BME280;17465;47.934;33.430;2023-02-26T13:15:32;56449.41;;;-140.43;100.00
30714;BME280;17465;47.934;33.430;2023-02-26T13:18:22;57357.96;;;-140.43;98.32
30714;BME280;17465;47.934;33.430;2023-02-26T13:21:00;57331.49;;;-140.43;99.00
30714;BME280;17465;47.934;33.430;2023-02-26T13:23:51;57348.43;;;-140.43;97.58
30714;BME280;17465;47.934;33.430;2023-02-26T13:26:26;57348.43;;;-140.43;97.58
30714;BME280;17465;47.934;33.430;2023-02-26T13:29:09;57346.32;;;-140.43;97.93
30714;BME280;17465;47.934;33.430;2023-02-26T13:31:49;57331.49;;;-140.43;98.92
30714;BME280;17465;47.934;33.430;2023-02-26T13:37:02;57325.14;;;-140.43;98.87
30714;BME280;17465;47.934;33.430;2023-02-26T13:45:51;57328.31;;;-140.43;99.08
30714;BME280;17465;47.934;33.430;2023-02-26T13:54:06;57352.67;;;-140.43;99.03
30714;BME280;17465;47.934;33.430;2023-02-26T14:05:07;57335.73;;;-140.43;100.00
30714;BME280;17465;47.934;33.430;2023-02-26T14:16:26;57331.49;;;-140.43;100.00
30714;BME280;17465;47.934;33.430;2023-02-26T14:22:13;57355.85;;;-140.43;100.00
30714;BME280;17465;47.934;33.430;2023-02-26T14:24:42;57338.90;;;-140.43;100.00
30714;BME280;17465;47.934;33.430;2023-02-26T14:35:43;57328.31;;;-140.43;99.70
30714;BME280;17465;47.934;33.430;2023-02-26T14:41:28;57324.07;;;-140.43;99.60
30714;BME280;17465;47.934;33.430;2023-02-26T14:44:03;57339.96;;;-140.43;100.00
30714;BME280;17465;47.934;33.430;2023-02-26T14:46:35;57339.96;;;-140.43;100.00
30714;BME280;17465;47.934;33.430;2023-02-26T14:49:11;57359.03;;;-140.43;100.00
30714;BME280;17465;47.934;33.430;2023-02-26T14:54:42;57332.55;;;-140.43;100.00
30714;BME280;17465;47.934;33.430;2023-02-26T15:10:43;57339.96;;;-140.43;100.00
30714;BME280;17465;47.934;33.430;2023-02-26T15:13:34;57335.73;;;-140.43;100.00
30714;BME280;17465;47.934;33.430;2023-02-26T15:16:36;57337.84;;;-140.43;100.00
30714;BME280;17465;47.934;33.430;2023-02-26T15:19:19;57331.49;;;-140.43;100.00
30714;BME280;17465;47.934;33.430;2023-02-26T15:24:42;57339.96;;;-140.43;100.00
30714;BME280;17465;47.934;33.430;2023-02-26T15:27:15;57372.79;;;-140.43;100.00
30714;BME280;17465;47.934;33.430;2023-02-26T15:29:48;57368.55;;;-140.43;100.00
30714;BME280;17465;47.934;33.430;2023-02-26T15:32:25;57356.91;;;-140.43;100.00
30714;BME280;17465;47.934;33.430;2023-02-26T15:37:52;57348.43;;;-140.43;100.00
30714;BME280;17465;47.934;33.430;2023-02-26T15:40:27;57350.55;;;-140.43;100.00
30714;BME280;17465;47.934;33.430;2023-02-26T15:42:58;57346.32;;;-140.43;100.00
30714;BME280;17465;47.934;33.430;2023-02-26T15:45:44;57346.32;;;-140.43;100.00
30714;BME280;17465;47.934;33.430;2023-02-26T15:50:58;57320.90;;;-140.43;100.00
30714;BME280;17465;47.934;33.430;2023-02-26T15:56:25;57330.43;;;-140.43;100.00
30714;BME280;17465;47.934;33.430;2023-02-26T15:59:02;57337.84;;;-140.43;100.00
30714;BME280;17465;47.934;33.430;2023-02-26T16:01:34;57369.62;;;-140.43;100.00
30714;BME280;17465;47.934;33.430;2023-02-26T16:04:10;57337.84;;;-140.43;100.00
30714;BME280;17465;47.934;33.430;2023-02-26T16:06:53;57351.61;;;-140.43;100.00